PWSweather.com
Personal Weather Stations
Station Observations
IROGLAN40
AalgaardNO 4330

AalgaardNO 4330

Lat: 58.773, Lon: 5.846

Elevation: 326

Station Type: Davis Vanatge Pro2

www.mavahome.com

High Low Average
Temperature 32.6°F0.3°C 18.2°F-7.7°C 25.1°F-3.8°C
Dew Point 9.7°F-12.4°C 1.6°F-16.9°C 5.3°F-14.8°C
Winds 9.2 mph 14.8 kmh Calm Calm 3.0 mph S4.8 kmh S
Wind Gusts 17.3 mph27.8 kmh -- 5.0 mph8.0 kmh
Humidity 62% 30% 43%
Pressure 30.48 in1032.2 mb 30.39 in1029.1 mb -
Precipitation 0.00 in0.0 mm - -
Hour Temp Dew Point Humidity Winds Wind Gusts Pressure Precip Precip Rate Daily Precip Total
12:00 AM 24.0°F-4.4°C 8.1°F-13.3°C 50% 4.6 mph WSW7.4 kmh WSW 9.2 mph14.8 kmh 30.39 in1029.1 mb - 0.00 in0.0 mm 0.00 in0.0 mm
12:10 AM 23.8°F-4.6°C 7.4°F-13.7°C 49% 3.5 mph WSW5.6 kmh WSW 11.5 mph18.5 kmh 30.40 in1029.5 mb - 0.00 in0.0 mm 0.00 in0.0 mm
12:20 AM 23.7°F-4.6°C 8.6°F-13.0°C 52% 4.6 mph WSW7.4 kmh WSW 10.4 mph16.7 kmh 30.40 in1029.5 mb - 0.00 in0.0 mm 0.00 in0.0 mm
12:30 AM 23.4°F-4.8°C 7.4°F-13.7°C 50% 1.2 mph SW1.9 kmh SW 3.5 mph5.6 kmh 30.40 in1029.5 mb - 0.00 in0.0 mm 0.00 in0.0 mm
12:40 AM 23.4°F-4.8°C 7.0°F-13.9°C 49% 4.6 mph WSW7.4 kmh WSW 6.9 mph11.1 kmh 30.41 in1029.8 mb - 0.00 in0.0 mm 0.00 in0.0 mm
12:50 AM 23.5°F-4.7°C 7.1°F-13.8°C 49% 5.8 mph SW9.3 kmh SW 6.9 mph11.1 kmh 30.41 in1029.8 mb - 0.00 in0.0 mm 0.00 in0.0 mm
01:00 AM 23.5°F-4.7°C 7.1°F-13.8°C 49% 1.2 mph W1.9 kmh W 9.2 mph14.8 kmh 30.41 in1029.8 mb - 0.00 in0.0 mm 0.00 in0.0 mm
01:10 AM 23.4°F-4.8°C 6.6°F-14.1°C 48% 6.9 mph WNW11.1 kmh WNW 13.8 mph22.2 kmh 30.41 in1029.8 mb - 0.00 in0.0 mm 0.00 in0.0 mm
01:20 AM 23.3°F-4.8°C 6.5°F-14.2°C 48% 3.5 mph SW5.6 kmh SW 9.2 mph14.8 kmh 30.41 in1029.8 mb - 0.00 in0.0 mm 0.00 in0.0 mm
01:30 AM 23.1°F-4.9°C 5.8°F-14.6°C 47% 3.5 mph W5.6 kmh W 10.4 mph16.7 kmh 30.41 in1029.8 mb - 0.00 in0.0 mm 0.00 in0.0 mm
01:40 AM 23.1°F-4.9°C 6.3°F-14.3°C 48% 4.6 mph WSW7.4 kmh WSW 11.5 mph18.5 kmh 30.42 in1030.1 mb - 0.00 in0.0 mm 0.00 in0.0 mm
01:50 AM 22.9°F-5.1°C 6.1°F-14.4°C 48% 2.3 mph SW3.7 kmh SW 8.1 mph13.0 kmh 30.42 in1030.1 mb - 0.00 in0.0 mm 0.00 in0.0 mm
02:00 AM 22.8°F-5.1°C 6.0°F-14.4°C 48% 4.6 mph WNW7.4 kmh WNW 6.9 mph11.1 kmh 30.42 in1030.1 mb - 0.00 in0.0 mm 0.00 in0.0 mm
02:10 AM 22.8°F-5.1°C 6.0°F-14.4°C 48% 1.2 mph NW1.9 kmh NW 10.4 mph16.7 kmh 30.42 in1030.1 mb - 0.00 in0.0 mm 0.00 in0.0 mm
02:20 AM 23.0°F-5.0°C 5.8°F-14.6°C 47% 9.2 mph W14.8 kmh W 10.4 mph16.7 kmh 30.43 in1030.5 mb - 0.00 in0.0 mm 0.00 in0.0 mm
02:30 AM 22.9°F-5.1°C 5.7°F-14.6°C 47% 5.8 mph WNW9.3 kmh WNW 12.7 mph20.4 kmh 30.43 in1030.5 mb - 0.00 in0.0 mm 0.00 in0.0 mm
02:40 AM 22.9°F-5.1°C 6.1°F-14.4°C 48% 4.6 mph SW7.4 kmh SW 9.2 mph14.8 kmh 30.43 in1030.5 mb - 0.00 in0.0 mm 0.00 in0.0 mm
02:50 AM 22.8°F-5.1°C 6.0°F-14.4°C 48% 5.8 mph W9.3 kmh W 11.5 mph18.5 kmh 30.43 in1030.5 mb - 0.00 in0.0 mm 0.00 in0.0 mm
03:00 AM 22.7°F-5.2°C 5.5°F-14.7°C 47% 4.6 mph SE7.4 kmh SE 4.6 mph7.4 kmh 30.43 in1030.5 mb - 0.00 in0.0 mm 0.00 in0.0 mm
03:10 AM 22.8°F-5.1°C 7.4°F-13.7°C 51% 4.6 mph SE7.4 kmh SE 6.9 mph11.1 kmh 30.43 in1030.5 mb - 0.00 in0.0 mm 0.00 in0.0 mm
03:20 AM 22.6°F-5.2°C 7.2°F-13.8°C 51% 3.5 mph SE5.6 kmh SE 4.6 mph7.4 kmh 30.43 in1030.5 mb - 0.00 in0.0 mm 0.00 in0.0 mm
03:30 AM 22.4°F-5.3°C 7.0°F-13.9°C 51% 3.5 mph SSE5.6 kmh SSE 4.6 mph7.4 kmh 30.44 in1030.8 mb - 0.00 in0.0 mm 0.00 in0.0 mm
03:40 AM 22.0°F-5.6°C 7.0°F-13.9°C 52% 1.2 mph E1.9 kmh E 3.5 mph5.6 kmh 30.43 in1030.5 mb - 0.00 in0.0 mm 0.00 in0.0 mm
03:50 AM 21.6°F-5.8°C 7.1°F-13.8°C 53% 2.3 mph ESE3.7 kmh ESE 3.5 mph5.6 kmh 30.43 in1030.5 mb - 0.00 in0.0 mm 0.00 in0.0 mm
04:00 AM 21.6°F-5.8°C 7.5°F-13.6°C 54% 1.2 mph SE1.9 kmh SE 3.5 mph5.6 kmh 30.43 in1030.5 mb - 0.00 in0.0 mm 0.00 in0.0 mm
04:10 AM 21.3°F-5.9°C 7.2°F-13.8°C 54% Calm Calm 2.3 mph3.7 kmh 30.43 in1030.5 mb - 0.00 in0.0 mm 0.00 in0.0 mm
04:20 AM 20.9°F-6.2°C 7.2°F-13.8°C 55% 1.2 mph SE1.9 kmh SE 2.3 mph3.7 kmh 30.43 in1030.5 mb - 0.00 in0.0 mm 0.00 in0.0 mm
04:30 AM 20.8°F-6.2°C 7.6°F-13.6°C 56% Calm Calm 2.3 mph3.7 kmh 30.43 in1030.5 mb - 0.00 in0.0 mm 0.00 in0.0 mm
04:40 AM 20.6°F-6.3°C 7.8°F-13.4°C 57% 1.2 mph SE1.9 kmh SE 2.3 mph3.7 kmh 30.43 in1030.5 mb - 0.00 in0.0 mm 0.00 in0.0 mm
04:50 AM 20.7°F-6.3°C 7.9°F-13.4°C 57% Calm Calm 1.2 mph1.9 kmh 30.44 in1030.8 mb - 0.00 in0.0 mm 0.00 in0.0 mm
05:00 AM 20.7°F-6.3°C 7.9°F-13.4°C 57% Calm Calm 1.2 mph1.9 kmh 30.44 in1030.8 mb - 0.00 in0.0 mm 0.00 in0.0 mm
05:10 AM 20.8°F-6.2°C 7.6°F-13.6°C 56% 1.2 mph SSW1.9 kmh SSW 2.3 mph3.7 kmh 30.44 in1030.8 mb - 0.00 in0.0 mm 0.00 in0.0 mm
05:20 AM 20.7°F-6.3°C 7.4°F-13.7°C 56% Calm Calm -- 30.44 in1030.8 mb - 0.00 in0.0 mm 0.00 in0.0 mm
05:30 AM 20.4°F-6.4°C 7.2°F-13.8°C 56% Calm Calm 1.2 mph1.9 kmh 30.44 in1030.8 mb - 0.00 in0.0 mm 0.00 in0.0 mm
05:40 AM 20.3°F-6.5°C 7.1°F-13.8°C 56% Calm Calm 1.2 mph1.9 kmh 30.44 in1030.8 mb - 0.00 in0.0 mm 0.00 in0.0 mm
05:50 AM 20.8°F-6.2°C 7.1°F-13.8°C 55% 2.3 mph NW3.7 kmh NW 3.5 mph5.6 kmh 30.44 in1030.8 mb - 0.00 in0.0 mm 0.00 in0.0 mm
06:00 AM 21.0°F-6.1°C 7.3°F-13.7°C 55% 1.2 mph WNW1.9 kmh WNW 3.5 mph5.6 kmh 30.45 in1031.2 mb - 0.00 in0.0 mm 0.00 in0.0 mm
06:10 AM 20.9°F-6.2°C 6.8°F-14.0°C 54% 1.2 mph SW1.9 kmh SW 2.3 mph3.7 kmh 30.45 in1031.2 mb - 0.00 in0.0 mm 0.00 in0.0 mm
06:20 AM 20.8°F-6.2°C 6.7°F-14.1°C 54% 2.3 mph WSW3.7 kmh WSW 3.5 mph5.6 kmh 30.45 in1031.2 mb - 0.00 in0.0 mm 0.00 in0.0 mm
06:30 AM 20.9°F-6.2°C 6.4°F-14.2°C 53% 1.2 mph SW1.9 kmh SW 3.5 mph5.6 kmh 30.45 in1031.2 mb - 0.00 in0.0 mm 0.00 in0.0 mm
06:40 AM 20.8°F-6.2°C 6.3°F-14.3°C 53% 2.3 mph SE3.7 kmh SE 3.5 mph5.6 kmh 30.45 in1031.2 mb - 0.00 in0.0 mm 0.00 in0.0 mm
06:50 AM 20.6°F-6.3°C 5.7°F-14.6°C 52% 1.2 mph SSW1.9 kmh SSW 2.3 mph3.7 kmh 30.45 in1031.2 mb - 0.00 in0.0 mm 0.00 in0.0 mm
07:00 AM 20.5°F-6.4°C 5.6°F-14.7°C 52% 1.2 mph SW1.9 kmh SW 3.5 mph5.6 kmh 30.46 in1031.5 mb - 0.00 in0.0 mm 0.00 in0.0 mm
07:10 AM 20.4°F-6.4°C 5.1°F-14.9°C 51% 1.2 mph WSW1.9 kmh WSW 3.5 mph5.6 kmh 30.46 in1031.5 mb - 0.00 in0.0 mm 0.00 in0.0 mm
07:20 AM 20.3°F-6.5°C 5.5°F-14.7°C 52% 1.2 mph WSW1.9 kmh WSW 2.3 mph3.7 kmh 30.46 in1031.5 mb - 0.00 in0.0 mm 0.00 in0.0 mm
07:30 AM 20.1°F-6.6°C 4.9°F-15.1°C 51% Calm Calm -- 30.46 in1031.5 mb - 0.00 in0.0 mm 0.00 in0.0 mm
07:40 AM 19.9°F-6.7°C 5.5°F-14.7°C 53% Calm Calm 2.3 mph3.7 kmh 30.46 in1031.5 mb - 0.00 in0.0 mm 0.00 in0.0 mm
07:50 AM 20.3°F-6.5°C 4.6°F-15.2°C 50% 2.3 mph SSE3.7 kmh SSE 3.5 mph5.6 kmh 30.46 in1031.5 mb - 0.00 in0.0 mm 0.00 in0.0 mm
08:00 AM 20.7°F-6.3°C 4.5°F-15.3°C 49% 2.3 mph SSE3.7 kmh SSE 3.5 mph5.6 kmh 30.47 in1031.8 mb - 0.00 in0.0 mm 0.00 in0.0 mm
08:10 AM 21.2°F-6.0°C 5.0°F-15.0°C 49% 1.2 mph SE1.9 kmh SE 2.3 mph3.7 kmh 30.47 in1031.8 mb - 0.00 in0.0 mm 0.00 in0.0 mm
08:20 AM 21.5°F-5.8°C 4.3°F-15.4°C 47% 3.5 mph SE5.6 kmh SE 4.6 mph7.4 kmh 30.47 in1031.8 mb - 0.00 in0.0 mm 0.00 in0.0 mm
08:30 AM 22.3°F-5.4°C 3.7°F-15.7°C 44% 4.6 mph SSE7.4 kmh SSE 6.9 mph11.1 kmh 30.47 in1031.8 mb - 0.00 in0.0 mm 0.00 in0.0 mm
08:40 AM 23.1°F-4.9°C 3.9°F-15.6°C 43% 2.3 mph E3.7 kmh E 6.9 mph11.1 kmh 30.47 in1031.8 mb - 0.00 in0.0 mm 0.00 in0.0 mm
08:50 AM 24.0°F-4.4°C 3.7°F-15.7°C 41% 1.2 mph SE1.9 kmh SE 1.2 mph1.9 kmh 30.47 in1031.8 mb - 0.00 in0.0 mm 0.00 in0.0 mm
09:00 AM 25.2°F-3.8°C 3.7°F-15.7°C 39% 3.5 mph SSE5.6 kmh SSE 6.9 mph11.1 kmh 30.47 in1031.8 mb - 0.00 in0.0 mm 0.00 in0.0 mm
09:10 AM 25.8°F-3.4°C 3.7°F-15.7°C 38% 1.2 mph SE1.9 kmh SE 5.8 mph9.3 kmh 30.47 in1031.8 mb - 0.00 in0.0 mm 0.00 in0.0 mm
09:20 AM 26.5°F-3.1°C 3.1°F-16.1°C 36% 5.8 mph SSE9.3 kmh SSE 8.1 mph13.0 kmh 30.47 in1031.8 mb - 0.00 in0.0 mm 0.00 in0.0 mm
09:30 AM 26.9°F-2.8°C 4.1°F-15.5°C 37% 4.6 mph SE7.4 kmh SE 6.9 mph11.1 kmh 30.47 in1031.8 mb - 0.00 in0.0 mm 0.00 in0.0 mm
09:40 AM 26.8°F-2.9°C 2.8°F-16.2°C 35% 3.5 mph SSE5.6 kmh SSE 3.5 mph5.6 kmh 30.47 in1031.8 mb - 0.00 in0.0 mm 0.00 in0.0 mm
09:50 AM 27.4°F-2.6°C 3.9°F-15.6°C 36% 3.5 mph SE5.6 kmh SE 11.5 mph18.5 kmh 30.48 in1032.2 mb - 0.00 in0.0 mm 0.00 in0.0 mm
10:00 AM 27.8°F-2.3°C 3.0°F-16.1°C 34% 3.5 mph SE5.6 kmh SE 5.8 mph9.3 kmh 30.48 in1032.2 mb - 0.00 in0.0 mm 0.00 in0.0 mm
10:10 AM 27.7°F-2.4°C 2.9°F-16.2°C 34% 4.6 mph S7.4 kmh S 6.9 mph11.1 kmh 30.48 in1032.2 mb - 0.00 in0.0 mm 0.00 in0.0 mm
10:20 AM 28.8°F-1.8°C 3.9°F-15.6°C 34% 1.2 mph SSE1.9 kmh SSE 4.6 mph7.4 kmh 30.48 in1032.2 mb - 0.00 in0.0 mm 0.00 in0.0 mm
10:30 AM 27.9°F-2.3°C 2.5°F-16.4°C 33% 5.8 mph SSE9.3 kmh SSE 8.1 mph13.0 kmh 30.48 in1032.2 mb - 0.00 in0.0 mm 0.00 in0.0 mm
10:40 AM 28.1°F-2.2°C 2.0°F-16.7°C 32% 2.3 mph S3.7 kmh S 3.5 mph5.6 kmh 30.48 in1032.2 mb - 0.00 in0.0 mm 0.00 in0.0 mm
10:50 AM 28.8°F-1.8°C 1.9°F-16.7°C 31% 2.3 mph SE3.7 kmh SE 6.9 mph11.1 kmh 30.48 in1032.2 mb - 0.00 in0.0 mm 0.00 in0.0 mm
11:00 AM 29.9°F-1.2°C 2.9°F-16.2°C 31% 2.3 mph SE3.7 kmh SE 3.5 mph5.6 kmh 30.47 in1031.8 mb - 0.00 in0.0 mm 0.00 in0.0 mm
11:10 AM 29.3°F-1.5°C 1.7°F-16.8°C 30% 3.5 mph S5.6 kmh S 5.8 mph9.3 kmh 30.48 in1032.2 mb - 0.00 in0.0 mm 0.00 in0.0 mm
11:20 AM 29.3°F-1.5°C 1.6°F-16.9°C 30% 6.9 mph SE11.1 kmh SE 17.3 mph27.8 kmh 30.48 in1032.2 mb - 0.00 in0.0 mm 0.00 in0.0 mm
11:30 AM 29.5°F-1.4°C 3.8°F-15.7°C 33% 4.6 mph SSE7.4 kmh SSE 9.2 mph14.8 kmh 30.48 in1032.2 mb - 0.00 in0.0 mm 0.00 in0.0 mm
11:40 AM 29.8°F-1.2°C 3.5°F-15.8°C 32% 5.8 mph ESE9.3 kmh ESE 11.5 mph18.5 kmh 30.48 in1032.2 mb - 0.00 in0.0 mm 0.00 in0.0 mm
11:50 AM 29.5°F-1.4°C 3.2°F-16.0°C 32% 5.8 mph ESE9.3 kmh ESE 11.5 mph18.5 kmh 30.48 in1032.2 mb - 0.00 in0.0 mm 0.00 in0.0 mm
12:00 PM 29.0°F-1.7°C 2.7°F-16.3°C 32% 6.9 mph SSE11.1 kmh SSE 13.8 mph22.2 kmh 30.47 in1031.8 mb - 0.00 in0.0 mm 0.00 in0.0 mm
12:10 PM 29.4°F-1.4°C 3.8°F-15.7°C 33% 5.8 mph SE9.3 kmh SE 11.5 mph18.5 kmh 30.47 in1031.8 mb - 0.00 in0.0 mm 0.00 in0.0 mm
12:20 PM 29.7°F-1.3°C 3.4°F-15.9°C 32% 4.6 mph SSE7.4 kmh SSE 10.4 mph16.7 kmh 30.47 in1031.8 mb - 0.00 in0.0 mm 0.00 in0.0 mm
12:30 PM 30.1°F-1.1°C 4.4°F-15.3°C 33% 4.6 mph SE7.4 kmh SE 10.4 mph16.7 kmh 30.47 in1031.8 mb - 0.00 in0.0 mm 0.00 in0.0 mm
12:40 PM 29.5°F-1.4°C 4.6°F-15.2°C 34% 5.8 mph S9.3 kmh S 8.1 mph13.0 kmh 30.47 in1031.8 mb - 0.00 in0.0 mm 0.00 in0.0 mm
12:50 PM 29.4°F-1.4°C 4.5°F-15.3°C 34% 3.5 mph S5.6 kmh S 4.6 mph7.4 kmh 30.46 in1031.5 mb - 0.00 in0.0 mm 0.00 in0.0 mm
01:00 PM 29.7°F-1.3°C 4.7°F-15.2°C 34% 3.5 mph SSE5.6 kmh SSE 4.6 mph7.4 kmh 30.46 in1031.5 mb - 0.00 in0.0 mm 0.00 in0.0 mm
01:10 PM 30.4°F-0.9°C 5.3°F-14.8°C 34% 6.9 mph SE11.1 kmh SE 10.4 mph16.7 kmh 30.46 in1031.5 mb - 0.00 in0.0 mm 0.00 in0.0 mm
01:20 PM 30.1°F-1.1°C 4.4°F-15.3°C 33% 4.6 mph SE7.4 kmh SE 8.1 mph13.0 kmh 30.45 in1031.2 mb - 0.00 in0.0 mm 0.00 in0.0 mm
01:30 PM 30.4°F-0.9°C 4.7°F-15.2°C 33% 5.8 mph SE9.3 kmh SE 10.4 mph16.7 kmh 30.45 in1031.2 mb - 0.00 in0.0 mm 0.00 in0.0 mm
01:40 PM 30.2°F-1.0°C 4.5°F-15.3°C 33% 8.1 mph SE13.0 kmh SE 12.7 mph20.4 kmh 30.45 in1031.2 mb - 0.00 in0.0 mm 0.00 in0.0 mm
01:50 PM 31.0°F-0.6°C 5.2°F-14.9°C 33% 6.9 mph SE11.1 kmh SE 11.5 mph18.5 kmh 30.45 in1031.2 mb - 0.00 in0.0 mm 0.00 in0.0 mm
02:00 PM 30.9°F-0.6°C 5.2°F-14.9°C 33% 5.8 mph SE9.3 kmh SE 9.2 mph14.8 kmh 30.44 in1030.8 mb - 0.00 in0.0 mm 0.00 in0.0 mm
02:10 PM 30.9°F-0.6°C 5.1°F-14.9°C 33% 6.9 mph SE11.1 kmh SE 8.1 mph13.0 kmh 30.44 in1030.8 mb - 0.00 in0.0 mm 0.00 in0.0 mm
02:20 PM 31.6°F-0.2°C 5.7°F-14.6°C 33% 6.9 mph SSE11.1 kmh SSE 11.5 mph18.5 kmh 30.44 in1030.8 mb - 0.00 in0.0 mm 0.00 in0.0 mm
02:30 PM 31.8°F-0.1°C 5.2°F-14.9°C 32% 6.9 mph SE11.1 kmh SE 9.2 mph14.8 kmh 30.44 in1030.8 mb - 0.00 in0.0 mm 0.00 in0.0 mm
02:40 PM 31.7°F-0.2°C 5.2°F-14.9°C 32% 8.1 mph ESE13.0 kmh ESE 12.7 mph20.4 kmh 30.44 in1030.8 mb - 0.00 in0.0 mm 0.00 in0.0 mm
02:50 PM 31.4°F-0.3°C 4.9°F-15.1°C 32% 5.8 mph SSE9.3 kmh SSE 5.8 mph9.3 kmh 30.43 in1030.5 mb - 0.00 in0.0 mm 0.00 in0.0 mm
03:00 PM 32.6°F0.3°C 5.2°F-14.9°C 31% 2.3 mph SSE3.7 kmh SSE 5.8 mph9.3 kmh 30.43 in1030.5 mb - 0.00 in0.0 mm 0.00 in0.0 mm
03:10 PM 32.1°F0.1°C 4.8°F-15.1°C 31% 4.6 mph SSE7.4 kmh SSE 4.6 mph7.4 kmh 30.43 in1030.5 mb - 0.00 in0.0 mm 0.00 in0.0 mm
03:20 PM 31.5°F-0.3°C 5.0°F-15.0°C 32% 6.9 mph SSE11.1 kmh SSE 11.5 mph18.5 kmh 30.43 in1030.5 mb - 0.00 in0.0 mm 0.00 in0.0 mm
03:30 PM 31.2°F-0.4°C 4.7°F-15.2°C 32% 4.6 mph S7.4 kmh S 4.6 mph7.4 kmh 30.43 in1030.5 mb - 0.00 in0.0 mm 0.00 in0.0 mm
03:40 PM 31.7°F-0.2°C 4.5°F-15.3°C 31% 5.8 mph SSE9.3 kmh SSE 11.5 mph18.5 kmh 30.43 in1030.5 mb - 0.00 in0.0 mm 0.00 in0.0 mm
03:50 PM 31.4°F-0.3°C 4.2°F-15.4°C 31% 5.8 mph SSE9.3 kmh SSE 10.4 mph16.7 kmh 30.43 in1030.5 mb - 0.00 in0.0 mm 0.00 in0.0 mm
04:00 PM 31.2°F-0.4°C 4.7°F-15.2°C 32% 5.8 mph SSE9.3 kmh SSE 9.2 mph14.8 kmh 30.43 in1030.5 mb - 0.00 in0.0 mm 0.00 in0.0 mm
04:10 PM 31.2°F-0.4°C 4.0°F-15.6°C 31% 3.5 mph SE5.6 kmh SE 6.9 mph11.1 kmh 30.43 in1030.5 mb - 0.00 in0.0 mm 0.00 in0.0 mm
04:20 PM 30.8°F-0.7°C 4.4°F-15.3°C 32% 2.3 mph SE3.7 kmh SE 8.1 mph13.0 kmh 30.43 in1030.5 mb - 0.00 in0.0 mm 0.00 in0.0 mm
04:30 PM 31.3°F-0.4°C 4.8°F-15.1°C 32% 2.3 mph SSW3.7 kmh SSW 5.8 mph9.3 kmh 30.42 in1030.1 mb - 0.00 in0.0 mm 0.00 in0.0 mm
04:40 PM 31.2°F-0.4°C 3.3°F-15.9°C 30% 3.5 mph SSE5.6 kmh SSE 3.5 mph5.6 kmh 30.42 in1030.1 mb - 0.00 in0.0 mm 0.00 in0.0 mm
04:50 PM 31.7°F-0.2°C 4.4°F-15.3°C 31% 3.5 mph SSE5.6 kmh SSE 3.5 mph5.6 kmh 30.42 in1030.1 mb - 0.00 in0.0 mm 0.00 in0.0 mm
05:00 PM 30.8°F-0.7°C 3.7°F-15.7°C 31% 3.5 mph SE5.6 kmh SE 4.6 mph7.4 kmh 30.42 in1030.1 mb - 0.00 in0.0 mm 0.00 in0.0 mm
05:10 PM 30.9°F-0.6°C 3.0°F-16.1°C 30% 2.3 mph S3.7 kmh S 4.6 mph7.4 kmh 30.42 in1030.1 mb - 0.00 in0.0 mm 0.00 in0.0 mm
05:20 PM 30.4°F-0.9°C 3.3°F-15.9°C 31% 5.8 mph SE9.3 kmh SE 9.2 mph14.8 kmh 30.42 in1030.1 mb - 0.00 in0.0 mm 0.00 in0.0 mm
05:30 PM 30.1°F-1.1°C 3.1°F-16.1°C 31% 4.6 mph SE7.4 kmh SE 6.9 mph11.1 kmh 30.42 in1030.1 mb - 0.00 in0.0 mm 0.00 in0.0 mm
05:40 PM 30.7°F-0.7°C 3.6°F-15.8°C 31% 3.5 mph S5.6 kmh S 4.6 mph7.4 kmh 30.42 in1030.1 mb - 0.00 in0.0 mm 0.00 in0.0 mm
05:50 PM 30.5°F-0.8°C 3.4°F-15.9°C 31% 1.2 mph S1.9 kmh S 3.5 mph5.6 kmh 30.42 in1030.1 mb - 0.00 in0.0 mm 0.00 in0.0 mm
06:00 PM 29.8°F-1.2°C 4.2°F-15.4°C 33% Calm Calm 1.2 mph1.9 kmh 30.42 in1030.1 mb - 0.00 in0.0 mm 0.00 in0.0 mm
06:10 PM 29.2°F-1.6°C 3.6°F-15.8°C 33% Calm Calm 1.2 mph1.9 kmh 30.42 in1030.1 mb - 0.00 in0.0 mm 0.00 in0.0 mm
06:20 PM 28.6°F-1.9°C 3.7°F-15.7°C 34% Calm Calm 1.2 mph1.9 kmh 30.42 in1030.1 mb - 0.00 in0.0 mm 0.00 in0.0 mm
06:30 PM 28.1°F-2.2°C 3.9°F-15.6°C 35% 1.2 mph S1.9 kmh S 1.2 mph1.9 kmh 30.42 in1030.1 mb - 0.00 in0.0 mm 0.00 in0.0 mm
06:40 PM 27.7°F-2.4°C 4.8°F-15.1°C 37% Calm Calm -- 30.42 in1030.1 mb - 0.00 in0.0 mm 0.00 in0.0 mm
06:50 PM 27.2°F-2.7°C 4.9°F-15.1°C 38% Calm Calm -- 30.42 in1030.1 mb - 0.00 in0.0 mm 0.00 in0.0 mm
07:00 PM 26.7°F-2.9°C 5.0°F-15.0°C 39% Calm Calm -- 30.43 in1030.5 mb - 0.00 in0.0 mm 0.00 in0.0 mm
07:10 PM 26.2°F-3.2°C 6.2°F-14.3°C 42% Calm Calm 1.2 mph1.9 kmh 30.43 in1030.5 mb - 0.00 in0.0 mm 0.00 in0.0 mm
07:20 PM 26.1°F-3.3°C 5.0°F-15.0°C 40% Calm Calm -- 30.43 in1030.5 mb - 0.00 in0.0 mm 0.00 in0.0 mm
07:30 PM 25.7°F-3.5°C 8.7°F-12.9°C 48% Calm Calm -- 30.43 in1030.5 mb - 0.00 in0.0 mm 0.00 in0.0 mm
07:40 PM 25.0°F-3.9°C 9.4°F-12.6°C 51% Calm Calm -- 30.43 in1030.5 mb - 0.00 in0.0 mm 0.00 in0.0 mm
07:50 PM 24.3°F-4.3°C 8.8°F-12.9°C 51% Calm Calm -- 30.43 in1030.5 mb - 0.00 in0.0 mm 0.00 in0.0 mm
08:00 PM 23.7°F-4.6°C 8.6°F-13.0°C 52% Calm Calm -- 30.43 in1030.5 mb - 0.00 in0.0 mm 0.00 in0.0 mm
08:10 PM 23.1°F-4.9°C 8.9°F-12.8°C 54% Calm Calm -- 30.44 in1030.8 mb - 0.00 in0.0 mm 0.00 in0.0 mm
08:20 PM 22.6°F-5.2°C 9.6°F-12.4°C 57% Calm Calm -- 30.44 in1030.8 mb - 0.00 in0.0 mm 0.00 in0.0 mm
08:30 PM 22.3°F-5.4°C 9.0°F-12.8°C 56% Calm Calm -- 30.44 in1030.8 mb - 0.00 in0.0 mm 0.00 in0.0 mm
08:40 PM 22.0°F-5.6°C 9.4°F-12.6°C 58% Calm Calm -- 30.44 in1030.8 mb - 0.00 in0.0 mm 0.00 in0.0 mm
08:50 PM 21.5°F-5.8°C 9.0°F-12.8°C 58% Calm Calm -- 30.44 in1030.8 mb - 0.00 in0.0 mm 0.00 in0.0 mm
09:00 PM 21.1°F-6.1°C 9.7°F-12.4°C 61% Calm Calm -- 30.44 in1030.8 mb - 0.00 in0.0 mm 0.00 in0.0 mm
09:10 PM 20.7°F-6.3°C 9.7°F-12.4°C 62% Calm Calm -- 30.44 in1030.8 mb - 0.00 in0.0 mm 0.00 in0.0 mm
09:20 PM 22.6°F-5.2°C 1.9°F-16.7°C 40% Calm Calm -- 30.44 in1030.8 mb - 0.00 in0.0 mm 0.00 in0.0 mm
09:30 PM 22.4°F-5.3°C 1.7°F-16.8°C 40% Calm Calm -- 30.45 in1031.2 mb - 0.00 in0.0 mm 0.00 in0.0 mm
09:40 PM 22.2°F-5.4°C 2.6°F-16.3°C 42% Calm Calm -- 30.44 in1030.8 mb - 0.00 in0.0 mm 0.00 in0.0 mm
09:50 PM 21.9°F-5.6°C 3.3°F-15.9°C 44% Calm Calm -- 30.44 in1030.8 mb - 0.00 in0.0 mm 0.00 in0.0 mm
10:00 PM 21.4°F-5.9°C 3.8°F-15.7°C 46% Calm Calm -- 30.45 in1031.2 mb - 0.00 in0.0 mm 0.00 in0.0 mm
10:10 PM 20.8°F-6.2°C 3.7°F-15.7°C 47% Calm Calm -- 30.45 in1031.2 mb - 0.00 in0.0 mm 0.00 in0.0 mm
10:20 PM 20.6°F-6.3°C 3.5°F-15.8°C 47% Calm Calm -- 30.45 in1031.2 mb - 0.00 in0.0 mm 0.00 in0.0 mm
10:30 PM 20.3°F-6.5°C 4.6°F-15.2°C 50% Calm Calm -- 30.45 in1031.2 mb - 0.00 in0.0 mm 0.00 in0.0 mm
10:40 PM 20.0°F-6.7°C 4.7°F-15.2°C 51% Calm Calm -- 30.45 in1031.2 mb - 0.00 in0.0 mm 0.00 in0.0 mm
10:50 PM 19.5°F-6.9°C 5.9°F-14.5°C 55% Calm Calm -- 30.45 in1031.2 mb - 0.00 in0.0 mm 0.00 in0.0 mm
11:00 PM 19.0°F-7.2°C 5.8°F-14.6°C 56% Calm Calm -- 30.45 in1031.2 mb - 0.00 in0.0 mm 0.00 in0.0 mm
11:10 PM 18.8°F-7.3°C 5.2°F-14.9°C 55% Calm Calm -- 30.45 in1031.2 mb - 0.00 in0.0 mm 0.00 in0.0 mm
11:20 PM 18.8°F-7.3°C 4.9°F-15.1°C 54% Calm Calm -- 30.45 in1031.2 mb - 0.00 in0.0 mm 0.00 in0.0 mm
11:30 PM 19.1°F-7.2°C 4.7°F-15.2°C 53% Calm Calm -- 30.45 in1031.2 mb - 0.00 in0.0 mm 0.00 in0.0 mm
11:40 PM 18.6°F-7.4°C 5.1°F-14.9°C 55% Calm Calm -- 30.45 in1031.2 mb - 0.00 in0.0 mm 0.00 in0.0 mm
11:50 PM 18.2°F-7.7°C 5.1°F-14.9°C 56% Calm Calm -- 30.45 in1031.2 mb - 0.00 in0.0 mm 0.00 in0.0 mm